createdAt,value
2023-04-17T00:02:30.097Z,100440.98
2023-04-17T00:05:02.760Z,100439.21
2023-04-17T00:07:35.215Z,100438.36
2023-04-17T00:10:09.683Z,100437.23
2023-04-17T00:12:42.186Z,100442.64
2023-04-17T00:15:14.962Z,100448.20
2023-04-17T00:17:47.361Z,100450.64
2023-04-17T00:20:19.969Z,100459.55
2023-04-17T00:22:52.247Z,100459.48
2023-04-17T00:25:24.760Z,100464.13
2023-04-17T00:27:57.241Z,100463.84
2023-04-17T00:30:29.564Z,100469.16
2023-04-17T00:33:02.044Z,100460.95
2023-04-17T00:35:34.904Z,100459.02
2023-04-17T00:38:08.081Z,100460.36
2023-04-17T00:40:40.609Z,100457.17
2023-04-17T00:43:13.169Z,100457.44
2023-04-17T00:45:47.513Z,100459.59
2023-04-17T00:48:24.248Z,100455.80
2023-04-17T00:51:02.292Z,100455.38
2023-04-17T00:53:35.405Z,100455.98
2023-04-17T00:56:09.759Z,100452.81
2023-04-17T00:58:43.454Z,100455.10
2023-04-17T01:01:15.944Z,100457.77
2023-04-17T01:03:48.675Z,100462.02
2023-04-17T01:06:21.313Z,100463.91
2023-04-17T01:08:53.731Z,100464.13
2023-04-17T01:11:26.200Z,100465.72
2023-04-17T01:13:58.538Z,100462.02
2023-04-17T01:16:31.223Z,100465.40
2023-04-17T01:19:03.885Z,100465.73
2023-04-17T01:21:36.344Z,100470.49
2023-04-17T01:24:10.932Z,100474.14
2023-04-17T01:26:43.969Z,100475.33
2023-04-17T01:29:16.277Z,100475.08
2023-04-17T01:31:48.610Z,100474.67
2023-04-17T01:34:21.199Z,100470.67
2023-04-17T01:36:53.608Z,100469.52
2023-04-17T01:39:25.938Z,100471.95
2023-04-17T01:41:58.324Z,100468.42
2023-04-17T01:44:30.688Z,100466.55
2023-04-17T01:47:02.950Z,100465.48
2023-04-17T01:49:35.643Z,100461.38
2023-04-17T01:52:08.202Z,100459.91
2023-04-17T01:54:40.590Z,100455.77
2023-04-17T01:57:13.095Z,100458.21
2023-04-17T01:59:45.533Z,100454.51
2023-04-17T02:02:18.104Z,100452.14
2023-04-17T02:04:50.688Z,100448.81
2023-04-17T02:07:22.974Z,100446.79
2023-04-17T02:09:55.367Z,100451.84
2023-04-17T02:12:27.682Z,100454.55
2023-04-17T02:15:01.379Z,100456.60
2023-04-17T02:17:34.038Z,100457.26
2023-04-17T02:20:09.245Z,100455.21
2023-04-17T02:22:41.694Z,100452.98
2023-04-17T02:25:14.163Z,100451.36
2023-04-17T02:27:46.562Z,100448.92
2023-04-17T02:30:19.085Z,100448.20
2023-04-17T02:32:53.295Z,100445.05
2023-04-17T02:35:27.538Z,100445.09
2023-04-17T02:37:59.843Z,100446.57
2023-04-17T02:40:32.195Z,100443.77
2023-04-17T02:43:04.477Z,100440.65
2023-04-17T02:45:37.073Z,100440.69
2023-04-17T02:48:09.744Z,100436.46
2023-04-17T02:50:42.172Z,100438.67
2023-04-17T02:53:14.579Z,100439.47
2023-04-17T02:55:46.958Z,100437.08
2023-04-17T02:58:19.221Z,100442.96
2023-04-17T03:00:51.767Z,100446.16
2023-04-17T03:03:24.301Z,100447.86
2023-04-17T03:05:56.895Z,100445.80
2023-04-17T03:08:32.597Z,100442.16
2023-04-17T03:11:05.676Z,100437.20
2023-04-17T03:13:39.102Z,100439.70
2023-04-17T03:16:11.715Z,100446.25
2023-04-17T03:18:44.245Z,100441.25
2023-04-17T03:21:16.598Z,100441.04
2023-04-17T03:23:48.874Z,100443.48
2023-04-17T03:26:21.716Z,100441.70
2023-04-17T03:28:54.043Z,100440.08
2023-04-17T03:31:28.063Z,100439.70
2023-04-17T03:34:00.482Z,100437.06
2023-04-17T03:36:32.889Z,100438.79
2023-04-17T03:39:05.170Z,100437.09
2023-04-17T03:41:38.752Z,100438.95
2023-04-17T03:44:11.310Z,100443.11
2023-04-17T03:46:43.735Z,100448.73
2023-04-17T03:49:16.217Z,100457.24
2023-04-17T03:51:48.590Z,100460.52
2023-04-17T03:54:20.906Z,100461.98
2023-04-17T03:56:53.264Z,100466.01
2023-04-17T03:59:25.799Z,100470.16
2023-04-17T04:01:58.370Z,100471.91
2023-04-17T04:04:31.125Z,100475.69
2023-04-17T04:07:03.868Z,100478.95
2023-04-17T04:09:36.289Z,100486.86
2023-04-17T04:12:08.822Z,100492.02
2023-04-17T04:14:42.028Z,100492.02
2023-04-17T04:17:14.732Z,100489.12
2023-04-17T04:19:48.188Z,100490.25
2023-04-17T04:22:21.480Z,100480.41
2023-04-17T04:24:54.568Z,100480.23
2023-04-17T04:27:27.913Z,100481.23
2023-04-17T04:30:02.219Z,100485.97
2023-04-17T04:32:34.788Z,100481.92
2023-04-17T04:35:08.716Z,100473.61
2023-04-17T04:37:43.025Z,100475.06
2023-04-17T04:40:15.954Z,100479.89
2023-04-17T04:42:49.862Z,100480.44
2023-04-17T04:45:22.269Z,100482.46
2023-04-17T04:47:54.577Z,100473.58
2023-04-17T04:50:27.322Z,100476.05
2023-04-17T04:52:59.579Z,100473.39
2023-04-17T04:55:31.871Z,100479.74
2023-04-17T04:58:04.296Z,100475.38
2023-04-17T05:00:37.258Z,100471.33
2023-04-17T05:03:09.889Z,100475.62
2023-04-17T05:05:43.469Z,100474.45
2023-04-17T05:08:16.063Z,100476.75
2023-04-17T05:10:48.427Z,100464.86
2023-04-17T05:13:20.696Z,100466.89
2023-04-17T05:15:53.239Z,100467.73
2023-04-17T05:18:26.041Z,100477.75
2023-04-17T05:20:58.598Z,100485.73
2023-04-17T05:23:30.966Z,100485.97
2023-04-17T05:26:03.351Z,100487.85
2023-04-17T05:28:35.701Z,100489.70
2023-04-17T05:31:08.431Z,100493.88
2023-04-17T05:33:40.865Z,100497.35
2023-04-17T05:36:13.335Z,100494.11
2023-04-17T05:38:46.367Z,100486.73
2023-04-17T05:41:19.001Z,100486.75
2023-04-17T05:43:51.471Z,100493.25
2023-04-17T05:46:24.035Z,100494.56
2023-04-17T05:48:56.931Z,100493.25
2023-04-17T05:51:31.448Z,100495.20
2023-04-17T05:54:04.360Z,100502.48
2023-04-17T05:56:36.891Z,100503.55
2023-04-17T05:59:09.161Z,100507.64
2023-04-17T06:01:41.589Z,100508.29
2023-04-17T06:04:14.723Z,100514.39
2023-04-17T06:06:47.596Z,100509.63
2023-04-17T06:09:19.934Z,100510.53
2023-04-17T06:11:52.324Z,100519.51
2023-04-17T06:14:24.591Z,100519.50
2023-04-17T06:16:56.963Z,100531.73
2023-04-17T06:19:29.347Z,100535.93
2023-04-17T06:22:01.780Z,100539.36
2023-04-17T06:24:34.253Z,100536.13
2023-04-17T06:27:06.745Z,100538.65
2023-04-17T06:29:39.199Z,100539.56
2023-04-17T06:32:11.514Z,100540.11
2023-04-17T06:34:58.202Z,100546.83
2023-04-17T06:37:32.022Z,100549.27
2023-04-17T06:40:04.822Z,100546.10
2023-04-17T06:42:37.290Z,100546.66
2023-04-17T06:45:11.672Z,100544.37
2023-04-17T06:47:46.736Z,100547.42
2023-04-17T06:50:19.294Z,100552.58
2023-04-17T06:52:51.696Z,100545.10
2023-04-17T06:55:23.978Z,100553.30
2023-04-17T06:57:56.337Z,100546.24
2023-04-17T07:00:29.179Z,100548.83
2023-04-17T07:03:01.820Z,100556.86
2023-04-17T07:05:35.551Z,100565.02
2023-04-17T07:08:08.699Z,100574.60
2023-04-17T07:10:41.202Z,100580.32
2023-04-17T07:13:13.466Z,100586.39
2023-04-17T07:15:45.944Z,100595.08
2023-04-17T07:18:18.723Z,100593.65
2023-04-17T07:20:51.130Z,100598.34
2023-04-17T07:23:23.642Z,100607.68
2023-04-17T07:25:55.909Z,100617.07
2023-04-17T07:28:28.156Z,100617.27
2023-04-17T07:31:00.620Z,100621.77
2023-04-17T07:33:33.087Z,100620.77
2023-04-17T07:36:06.012Z,100617.58
2023-04-17T07:38:40.809Z,100627.09
2023-04-17T07:41:13.681Z,100627.10
2023-04-17T07:43:46.184Z,100630.03
2023-04-17T07:46:18.693Z,100629.81
2023-04-17T07:48:51.516Z,100630.19
2023-04-17T07:51:23.775Z,100634.58
2023-04-17T07:53:56.834Z,100631.55
2023-04-17T07:56:29.288Z,100631.09
2023-04-17T07:59:02.592Z,100636.05
2023-04-17T08:01:35.045Z,100639.19
2023-04-17T08:04:08.063Z,100635.98
2023-04-17T08:06:40.621Z,100640.30
2023-04-17T08:09:13.430Z,100638.08
2023-04-17T08:11:56.252Z,100638.05
2023-04-17T08:14:29.219Z,100640.91
2023-04-17T08:17:02.207Z,100638.84
2023-04-17T08:19:34.927Z,100635.85
2023-04-17T08:22:08.311Z,100637.02
2023-04-17T08:24:40.745Z,100640.79
2023-04-17T08:27:13.794Z,100640.30
2023-04-17T08:29:46.717Z,100642.00
2023-04-17T08:32:19.049Z,100639.31
2023-04-17T08:34:51.464Z,100642.24
2023-04-17T08:37:23.834Z,100634.27
2023-04-17T08:39:56.951Z,100635.53
2023-04-17T08:42:31.651Z,100634.45
2023-04-17T08:45:07.747Z,100632.54
2023-04-17T08:47:42.588Z,100634.36
2023-04-17T08:50:17.097Z,100632.65
2023-04-17T08:52:50.767Z,100633.64
2023-04-17T08:55:25.620Z,100635.44
2023-04-17T08:58:01.337Z,100640.46
2023-04-17T09:00:36.013Z,100643.04
2023-04-17T09:03:11.419Z,100641.50
2023-04-17T09:05:46.398Z,100643.98
2023-04-17T09:08:22.116Z,100647.35
2023-04-17T09:10:56.532Z,100639.48
2023-04-17T09:13:30.642Z,100637.45
2023-04-17T09:16:13.910Z,100641.69
2023-04-17T09:18:46.955Z,100640.52
2023-04-17T09:21:20.772Z,100641.30
2023-04-17T09:23:56.259Z,100636.55
2023-04-17T09:26:33.381Z,100636.98
2023-04-17T09:29:09.354Z,100635.34
2023-04-17T09:31:43.780Z,100636.60
2023-04-17T09:34:17.087Z,100638.63
2023-04-17T09:36:55.922Z,100639.08
2023-04-17T09:39:28.917Z,100641.44
2023-04-17T09:42:06.246Z,100643.24
2023-04-17T09:44:40.488Z,100641.36
2023-04-17T09:47:14.151Z,100644.10
2023-04-17T09:49:52.708Z,100647.02
2023-04-17T09:52:25.629Z,100649.65
2023-04-17T09:54:58.666Z,100648.11
2023-04-17T09:57:31.479Z,100650.89
2023-04-17T10:00:11.151Z,100648.41
2023-04-17T10:02:45.504Z,100644.78
2023-04-17T10:05:18.334Z,100651.33
2023-04-17T10:07:50.949Z,100650.82
2023-04-17T10:10:30.361Z,100651.76
2023-04-17T10:13:05.990Z,100658.62
2023-04-17T10:15:38.587Z,100656.95
2023-04-17T10:18:24.858Z,100655.58
2023-04-17T10:20:57.503Z,100655.31
2023-04-17T10:23:32.186Z,100652.59
2023-04-17T10:26:40.226Z,100647.40
2023-04-17T10:29:13.496Z,100644.81
2023-04-17T10:32:26.262Z,100646.48
2023-04-17T10:35:01.024Z,100648.21
2023-04-17T10:38:07.449Z,100646.34
2023-04-17T10:40:40.726Z,100648.95
2023-04-17T10:43:17.407Z,100649.35
2023-04-17T10:45:57.826Z,100650.82
2023-04-17T10:48:35.089Z,100654.89
2023-04-17T10:51:38.150Z,100653.04
2023-04-17T10:54:13.829Z,100653.44
2023-04-17T10:56:48.553Z,100655.02
2023-04-17T10:59:23.598Z,100654.35
2023-04-17T11:02:04.983Z,100654.44
2023-04-17T11:04:37.690Z,100648.95
2023-04-17T11:07:10.121Z,100652.61
2023-04-17T11:09:42.959Z,100647.42
2023-04-17T11:12:15.708Z,100645.98
2023-04-17T11:14:48.024Z,100642.38
2023-04-17T11:17:22.738Z,100643.63
2023-04-17T11:19:55.203Z,100638.96
2023-04-17T11:22:33.919Z,100635.06
2023-04-17T11:25:06.969Z,100636.05
2023-04-17T11:27:41.136Z,100630.53
2023-04-17T11:30:15.601Z,100623.27
2023-04-17T11:32:48.378Z,100625.77
2023-04-17T11:35:22.484Z,100622.28
2023-04-17T11:38:21.987Z,100620.89
2023-04-17T11:40:56.254Z,100622.61
2023-04-17T11:43:29.983Z,100622.77
2023-04-17T11:46:03.093Z,100618.27
2023-04-17T11:48:36.649Z,100618.88
2023-04-17T11:51:09.190Z,100617.23
2023-04-17T11:53:49.373Z,100617.79
2023-04-17T11:56:27.476Z,100612.69
2023-04-17T11:59:00.592Z,100608.06
2023-04-17T12:01:32.917Z,100611.06
2023-04-17T12:04:20.519Z,100603.89
2023-04-17T12:06:53.957Z,100606.08
2023-04-17T12:09:31.298Z,100604.84
2023-04-17T12:12:05.872Z,100606.38
2023-04-17T12:14:38.384Z,100605.38
2023-04-17T12:17:10.839Z,100598.38
2023-04-17T12:19:45.205Z,100596.52
2023-04-17T12:22:17.781Z,100596.53
2023-04-17T12:24:50.114Z,100594.41
2023-04-17T12:27:22.692Z,100593.58
2023-04-17T12:29:55.223Z,100591.83
2023-04-17T12:32:27.750Z,100594.67
2023-04-17T12:35:00.160Z,100595.58
2023-04-17T12:37:32.498Z,100594.02
2023-04-17T12:40:05.018Z,100591.09
2023-04-17T12:42:48.273Z,100587.88
2023-04-17T12:45:21.749Z,100586.04
2023-04-17T12:47:55.282Z,100587.02
2023-04-17T12:50:27.625Z,100580.74
2023-04-17T12:53:00.976Z,100580.39
2023-04-17T12:55:33.495Z,100582.34
2023-04-17T12:58:06.990Z,100581.56
2023-04-17T13:00:40.087Z,100577.27
2023-04-17T13:03:12.876Z,100577.02
2023-04-17T13:05:45.697Z,100572.64
2023-04-17T13:08:17.972Z,100574.89
2023-04-17T13:10:50.292Z,100572.85
2023-04-17T13:13:22.624Z,100578.51
2023-04-17T13:15:55.087Z,100573.45
2023-04-17T13:18:27.624Z,100577.44
2023-04-17T13:21:00.471Z,100578.42
2023-04-17T13:23:32.761Z,100578.27
2023-04-17T13:26:05.112Z,100578.48
2023-04-17T13:28:37.455Z,100584.33
2023-04-17T13:31:10.135Z,100582.88
2023-04-17T13:33:42.801Z,100579.77
2023-04-17T13:36:15.456Z,100583.46
2023-04-17T13:38:47.709Z,100584.04
2023-04-17T13:41:20.143Z,100583.14
2023-04-17T13:43:52.562Z,100583.41
2023-04-17T13:46:25.648Z,100589.61
2023-04-17T13:48:58.016Z,100585.58
2023-04-17T13:51:31.763Z,100586.92
2023-04-17T13:54:04.474Z,100585.27
2023-04-17T13:56:37.082Z,100589.89
2023-04-17T13:59:09.593Z,100593.92
2023-04-17T14:01:41.927Z,100597.01
2023-04-17T14:04:14.988Z,100598.05
2023-04-17T14:06:50.499Z,100599.35
2023-04-17T14:09:23.041Z,100592.59
2023-04-17T14:11:55.537Z,100596.45
2023-04-17T14:14:30.699Z,100595.60
2023-04-17T14:17:03.087Z,100593.71
2023-04-17T14:19:35.594Z,100599.48
2023-04-17T14:22:07.978Z,100600.55
2023-04-17T14:24:40.306Z,100597.95
2023-04-17T14:27:12.612Z,100597.66
2023-04-17T14:29:45.120Z,100600.58
2023-04-17T14:32:17.598Z,100597.17
2023-04-17T14:34:50.033Z,100596.85
2023-04-17T14:37:22.495Z,100593.64
2023-04-17T14:39:55.034Z,100591.54
2023-04-17T14:42:27.470Z,100591.79
2023-04-17T14:44:59.670Z,100591.33
2023-04-17T14:47:32.094Z,100586.21
2023-04-17T14:50:04.785Z,100586.45
2023-04-17T14:52:37.107Z,100584.48
2023-04-17T14:55:11.437Z,100587.78
2023-04-17T14:57:43.950Z,100588.71
2023-04-17T15:00:20.831Z,100589.23
2023-04-17T15:02:53.484Z,100589.12
2023-04-17T15:05:26.206Z,100582.55
2023-04-17T15:08:00.244Z,100581.57
2023-04-17T15:10:44.294Z,100580.55
2023-04-17T15:13:22.774Z,100577.05
2023-04-17T15:15:55.356Z,100571.75
2023-04-17T15:18:27.648Z,100571.58
2023-04-17T15:20:59.933Z,100570.95
2023-04-17T15:23:34.734Z,100573.27
2023-04-17T15:26:07.657Z,100574.59
2023-04-17T15:28:40.119Z,100578.23
2023-04-17T15:31:12.437Z,100577.42
2023-04-17T15:33:46.102Z,100573.50
2023-04-17T15:36:18.486Z,100571.77
2023-04-17T15:38:50.791Z,100572.80
2023-04-17T15:41:23.051Z,100571.63
2023-04-17T15:43:55.533Z,100567.77
2023-04-17T15:46:28.747Z,100567.04
2023-04-17T15:49:08.888Z,100563.35
2023-04-17T15:51:41.825Z,100565.77
2023-04-17T15:54:14.237Z,100565.10
2023-04-17T15:56:46.772Z,100565.45
2023-04-17T15:59:19.146Z,100564.70
2023-04-17T16:01:53.254Z,100564.65
2023-04-17T16:04:25.739Z,100568.10
2023-04-17T16:06:58.194Z,100568.80
2023-04-17T16:09:30.752Z,100564.80
2023-04-17T16:12:05.571Z,100562.07
2023-04-17T16:14:38.135Z,100567.11
2023-04-17T16:17:10.450Z,100564.05
2023-04-17T16:19:42.875Z,100563.48
2023-04-17T16:22:15.212Z,100565.06
2023-04-17T16:24:47.911Z,100567.55
2023-04-17T16:27:20.313Z,100566.88
2023-04-17T16:29:52.557Z,100565.80
2023-04-17T16:32:26.017Z,100563.66
2023-04-17T16:34:58.398Z,100565.79
2023-04-17T16:37:30.688Z,100566.46
2023-04-17T16:40:05.292Z,100563.10
2023-04-17T16:42:37.894Z,100568.81
2023-04-17T16:45:11.541Z,100567.60
2023-04-17T16:47:43.833Z,100569.05
2023-04-17T16:50:16.291Z,100573.06
2023-04-17T16:52:49.744Z,100575.31
2023-04-17T16:55:21.993Z,100575.31
2023-04-17T16:57:55.741Z,100581.16
2023-04-17T17:00:28.015Z,100581.58
2023-04-17T17:03:00.695Z,100586.46
2023-04-17T17:05:33.334Z,100586.19
2023-04-17T17:08:06.113Z,100586.70
2023-04-17T17:10:38.465Z,100587.26
2023-04-17T17:13:11.073Z,100592.89
2023-04-17T17:15:44.122Z,100593.11
2023-04-17T17:18:16.454Z,100594.00
2023-04-17T17:20:54.406Z,100596.80
2023-04-17T17:23:36.968Z,100593.13
2023-04-17T17:26:09.557Z,100596.27
2023-04-17T17:28:41.980Z,100595.17
2023-04-17T17:31:14.420Z,100596.83
2023-04-17T17:33:50.020Z,100604.08
2023-04-17T17:36:21.796Z,100608.71
2023-04-17T17:38:56.213Z,100611.52
2023-04-17T17:41:28.794Z,100614.98
2023-04-17T17:44:01.072Z,100620.92
2023-04-17T17:46:34.409Z,100622.75
2023-04-17T17:49:06.893Z,100625.43
2023-04-17T17:51:39.295Z,100626.87
2023-04-17T17:54:13.198Z,100631.26
2023-04-17T17:56:45.753Z,100636.03
2023-04-17T17:59:18.101Z,100638.89
2023-04-17T18:01:50.418Z,100644.87
2023-04-17T18:04:22.928Z,100642.81
2023-04-17T18:06:55.707Z,100646.67
2023-04-17T18:09:28.077Z,100650.30
2023-04-17T18:12:01.992Z,100651.30
2023-04-17T18:14:34.214Z,100655.63
2023-04-17T18:17:06.668Z,100660.27
2023-04-17T18:19:41.965Z,100661.76
2023-04-17T18:22:14.270Z,100660.97
2023-04-17T18:24:46.573Z,100669.23
2023-04-17T18:27:20.263Z,100669.15
2023-04-17T18:29:52.653Z,100671.82
2023-04-17T18:32:25.086Z,100670.44
2023-04-17T18:34:57.404Z,100671.08
2023-04-17T18:37:29.943Z,100673.77
2023-04-17T18:40:02.355Z,100664.98
2023-04-17T18:42:34.847Z,100663.52
2023-04-17T18:45:08.593Z,100659.77
2023-04-17T18:47:41.009Z,100662.92
2023-04-17T18:50:15.073Z,100659.46
2023-04-17T18:52:50.865Z,100662.38
2023-04-17T18:55:23.980Z,100662.08
2023-04-17T18:57:56.326Z,100663.55
2023-04-17T19:00:28.934Z,100666.02
2023-04-17T19:03:01.575Z,100670.23
2023-04-17T19:05:34.114Z,100671.04
2023-04-17T19:08:06.645Z,100670.02
2023-04-17T19:10:41.532Z,100670.38
2023-04-17T19:13:14.050Z,100670.90
2023-04-17T19:15:48.315Z,100665.25
2023-04-17T19:18:20.644Z,100667.09
2023-04-17T19:20:53.114Z,100664.08
2023-04-17T19:23:25.698Z,100659.95
2023-04-17T19:25:58.059Z,100654.58
2023-04-17T19:28:30.563Z,100652.73
2023-04-17T19:31:03.174Z,100649.73
2023-04-17T19:33:35.879Z,100650.73
2023-04-17T19:36:08.303Z,100649.25
2023-04-17T19:38:40.671Z,100653.09
2023-04-17T19:41:18.500Z,100654.00
2023-04-17T19:43:53.740Z,100657.43
2023-04-17T19:46:27.618Z,100655.36
2023-04-17T19:49:00.288Z,100650.95
2023-04-17T19:51:32.672Z,100653.77
2023-04-17T19:54:08.012Z,100656.60
2023-04-17T19:56:40.476Z,100653.19
2023-04-17T19:59:13.701Z,100652.78
2023-04-17T20:01:46.306Z,100648.20
2023-04-17T20:04:19.069Z,100651.30
2023-04-17T20:06:51.746Z,100652.35
2023-04-17T20:09:24.370Z,100644.31
2023-04-17T20:11:56.782Z,100652.98
2023-04-17T20:14:29.442Z,100646.65
2023-04-17T20:17:02.142Z,100645.42
2023-04-17T20:19:34.512Z,100645.11
2023-04-17T20:22:07.455Z,100644.21
2023-04-17T20:24:39.906Z,100643.14
2023-04-17T20:27:12.361Z,100634.33
2023-04-17T20:29:44.670Z,100642.01
2023-04-17T20:32:18.006Z,100646.39
2023-04-17T20:34:50.435Z,100647.42
2023-04-17T20:37:23.903Z,100645.80
2023-04-17T20:39:56.365Z,100648.46
2023-04-17T20:42:28.792Z,100651.00
2023-04-17T20:45:01.207Z,100650.94
2023-04-17T20:47:33.642Z,100648.53
2023-04-17T20:50:06.659Z,100657.90
2023-04-17T20:52:39.224Z,100660.92
2023-04-17T20:55:12.200Z,100657.42
2023-04-17T20:57:44.486Z,100666.13
2023-04-17T21:00:17.576Z,100666.09
2023-04-17T21:02:49.974Z,100664.73
2023-04-17T21:05:22.608Z,100667.00
2023-04-17T21:07:57.846Z,100667.80
2023-04-17T21:10:30.319Z,100671.11
2023-04-17T21:13:02.660Z,100671.59
2023-04-17T21:15:35.321Z,100675.50
2023-04-17T21:18:07.841Z,100675.20
2023-04-17T21:20:42.231Z,100673.73
2023-04-17T21:23:14.836Z,100673.45
2023-04-17T21:25:47.220Z,100673.48
2023-04-17T21:28:19.482Z,100680.98
2023-04-17T21:30:51.924Z,100682.27
2023-04-17T21:33:24.258Z,100686.84
2023-04-17T21:35:56.662Z,100686.96
2023-04-17T21:38:29.413Z,100689.83
2023-04-17T21:41:01.748Z,100686.98
2023-04-17T21:43:34.501Z,100684.61
2023-04-17T21:46:10.115Z,100686.61
2023-04-17T21:48:42.808Z,100685.42
2023-04-17T21:51:15.257Z,100687.23
2023-04-17T21:53:47.616Z,100681.91
2023-04-17T21:56:22.111Z,100681.11
2023-04-17T21:58:54.652Z,100675.30
2023-04-17T22:01:27.185Z,100678.80
2023-04-17T22:03:59.815Z,100681.09
2023-04-17T22:06:32.237Z,100678.15
2023-04-17T22:09:05.402Z,100680.92
2023-04-17T22:11:38.870Z,100671.22
2023-04-17T22:14:11.545Z,100671.47
2023-04-17T22:16:44.680Z,100670.92
2023-04-17T22:19:17.205Z,100669.64
2023-04-17T22:21:49.480Z,100667.20
2023-04-17T22:24:21.882Z,100669.58
2023-04-17T22:26:54.271Z,100665.52
2023-04-17T22:29:26.613Z,100666.40
2023-04-17T22:31:58.973Z,100667.48
2023-04-17T22:34:32.628Z,100664.80
2023-04-17T22:37:04.944Z,100663.17
2023-04-17T22:39:37.421Z,100662.58
2023-04-17T22:42:09.743Z,100661.58
2023-04-17T22:44:42.138Z,100662.02
2023-04-17T22:47:14.578Z,100656.66
2023-04-17T22:49:46.969Z,100651.95
2023-04-17T22:52:19.678Z,100648.55
2023-04-17T22:54:52.101Z,100645.06
2023-04-17T22:57:25.358Z,100638.64
2023-04-17T22:59:57.641Z,100635.63
2023-04-17T23:02:30.106Z,100635.48
2023-04-17T23:05:02.606Z,100632.82
2023-04-17T23:07:35.177Z,100627.98
2023-04-17T23:10:08.671Z,100628.41
2023-04-17T23:12:40.978Z,100629.48
2023-04-17T23:15:14.756Z,100625.38
2023-04-17T23:17:47.327Z,100627.22
2023-04-17T23:20:20.494Z,100627.94
2023-04-17T23:22:53.156Z,100628.50
2023-04-17T23:25:25.388Z,100630.22
2023-04-17T23:27:57.742Z,100627.39
2023-04-17T23:30:30.156Z,100628.89
2023-04-17T23:33:02.593Z,100625.54
2023-04-17T23:35:35.033Z,100633.42
2023-04-17T23:38:07.462Z,100633.26
2023-04-17T23:40:39.728Z,100637.19
2023-04-17T23:43:11.979Z,100624.09
2023-04-17T23:45:44.191Z,100636.73
2023-04-17T23:48:16.422Z,100634.48
2023-04-17T23:50:48.831Z,100628.43
2023-04-17T23:53:21.166Z,100626.16
2023-04-17T23:55:53.573Z,100629.03
2023-04-17T23:58:26.125Z,100626.61
